Port Costa, California
Current Conditions -  °F | °C
As of 12:53 AM on Friday 31 Oct 2014 (Local Time) from KCCR Reporting Station
Overcast Overcast  
Wind Chill: 61°   Ceiling: 2300
Heat Index: 61°   Visibility: 10mi
Dew Point: 55°   Wind: 3mph
Humidity: 81%   Direction: 220°SW
Pressure: 29.91"   Gusts: NA
Location:  38.05°N, 122.19°W
Report Text: KCCR 310753Z 22003KT 10SM OVC023 16/13 A2991 RMK AO2 SLP114 T01610128 402390117
Loading
Personal Weather Stations






























Interactive Weather Map
Tropical Storm Tracking
New forecast layout! Learn more

10-Day Weather Forecast

Advertisements
Track Severe Weather on mobile